createdAt,value
2023-04-09T00:01:24.726Z,20.63
2023-04-09T00:03:53.787Z,23.00
2023-04-09T00:06:21.835Z,23.13
2023-04-09T00:08:51.375Z,24.77
2023-04-09T00:11:19.723Z,21.63
2023-04-09T00:13:47.582Z,19.63
2023-04-09T00:16:15.534Z,21.57
2023-04-09T00:18:43.404Z,20.13
2023-04-09T00:21:11.265Z,19.87
2023-04-09T00:23:39.157Z,20.00
2023-04-09T00:26:08.435Z,21.53
2023-04-09T00:28:36.668Z,20.80
2023-04-09T00:31:04.665Z,22.37
2023-04-09T00:33:32.638Z,20.23
2023-04-09T00:36:00.686Z,24.13
2023-04-09T00:38:28.528Z,19.73
2023-04-09T00:40:56.531Z,20.20
2023-04-09T00:43:25.847Z,21.80
2023-04-09T00:45:53.911Z,19.73
2023-04-09T00:48:22.226Z,21.77
2023-04-09T00:50:50.180Z,22.07
2023-04-09T00:53:18.945Z,21.80
2023-04-09T00:55:46.999Z,25.00
2023-04-09T00:58:15.229Z,19.10
2023-04-09T01:00:44.641Z,22.17
2023-04-09T01:03:12.952Z,19.57
2023-04-09T01:05:51.030Z,20.83
2023-04-09T01:08:27.427Z,23.17
2023-04-09T01:11:04.004Z,20.03
2023-04-09T01:13:43.434Z,19.37
2023-04-09T01:16:16.665Z,17.80
2023-04-09T01:18:51.503Z,24.10
2023-04-09T01:21:24.328Z,17.07
2023-04-09T01:24:13.248Z,18.93
2023-04-09T01:26:54.663Z,22.67
2023-04-09T01:29:26.483Z,15.97
2023-04-09T01:31:56.694Z,22.27
2023-04-09T01:34:24.796Z,19.87
2023-04-09T01:36:57.783Z,19.77
2023-04-09T01:39:26.335Z,21.67
2023-04-09T01:41:56.129Z,21.20
2023-04-09T01:44:26.245Z,17.37
2023-04-09T01:46:56.090Z,19.57
2023-04-09T01:49:24.291Z,20.30
2023-04-09T01:51:52.553Z,20.43
2023-04-09T01:54:20.421Z,18.37
2023-04-09T01:56:49.631Z,18.50
2023-04-09T01:59:17.630Z,18.83
2023-04-09T02:01:48.709Z,19.50
2023-04-09T02:04:23.729Z,19.63
2023-04-09T02:06:59.424Z,19.00
2023-04-09T02:09:30.605Z,24.83
2023-04-09T02:12:00.836Z,22.03
2023-04-09T02:14:30.357Z,21.07
2023-04-09T02:16:59.824Z,16.30
2023-04-09T02:19:40.173Z,19.93
2023-04-09T02:22:08.452Z,18.53
2023-04-09T02:24:36.394Z,22.17
2023-04-09T02:27:04.488Z,21.13
2023-04-09T02:29:32.545Z,21.27
2023-04-09T02:32:01.894Z,21.60
2023-04-09T02:34:29.971Z,18.20
2023-04-09T02:36:57.890Z,24.40
2023-04-09T02:39:26.044Z,19.73
2023-04-09T02:41:54.085Z,19.87
2023-04-09T02:44:22.068Z,19.53
2023-04-09T02:46:51.800Z,15.50
2023-04-09T02:49:21.173Z,15.97
2023-04-09T02:51:49.204Z,19.47
2023-04-09T02:54:17.114Z,17.33
2023-04-09T02:56:44.981Z,22.80
2023-04-09T02:59:12.870Z,18.57
2023-04-09T03:01:40.952Z,17.63
2023-04-09T03:04:09.015Z,19.30
2023-04-09T03:06:38.286Z,16.80
2023-04-09T03:09:06.193Z,21.37
2023-04-09T03:11:34.056Z,17.80
2023-04-09T03:14:01.896Z,17.37
2023-04-09T03:16:29.844Z,16.97
2023-04-09T03:18:57.665Z,16.03
2023-04-09T03:21:27.471Z,17.57
2023-04-09T03:23:56.677Z,18.43
2023-04-09T03:26:24.550Z,18.90
2023-04-09T03:28:52.580Z,20.40
2023-04-09T03:31:20.788Z,16.80
2023-04-09T03:33:48.692Z,16.33
2023-04-09T03:36:16.523Z,17.57
2023-04-09T03:38:44.475Z,17.20
2023-04-09T03:41:13.684Z,18.07
2023-04-09T03:43:41.626Z,18.07
2023-04-09T03:46:13.356Z,16.67
2023-04-09T03:48:41.279Z,16.60
2023-04-09T03:51:13.061Z,14.07
2023-04-09T03:53:41.031Z,17.20
2023-04-09T03:56:09.584Z,16.93
2023-04-09T03:58:39.028Z,16.77
2023-04-09T04:01:07.078Z,15.77
2023-04-09T04:03:35.006Z,13.93
2023-04-09T04:06:03.702Z,15.43
2023-04-09T04:08:31.663Z,16.30
2023-04-09T04:11:04.912Z,13.80
2023-04-09T04:13:32.890Z,14.63
2023-04-09T04:16:02.137Z,15.20
2023-04-09T04:18:30.102Z,16.03
2023-04-09T04:20:57.939Z,15.87
2023-04-09T04:23:25.853Z,16.63
2023-04-09T04:25:54.170Z,15.17
2023-04-09T04:28:22.132Z,14.70
2023-04-09T04:30:50.016Z,15.00
2023-04-09T04:33:19.500Z,17.33
2023-04-09T04:35:47.673Z,15.20
2023-04-09T04:38:15.692Z,14.53
2023-04-09T04:40:43.516Z,15.20
2023-04-09T04:43:11.365Z,15.17
2023-04-09T04:45:39.292Z,15.33
2023-04-09T04:48:07.225Z,15.40
2023-04-09T04:50:36.513Z,15.17
2023-04-09T04:53:04.433Z,16.57
2023-04-09T04:55:32.302Z,15.10
2023-04-09T04:58:00.200Z,16.67
2023-04-09T05:00:28.176Z,15.23
2023-04-09T05:02:56.352Z,12.13
2023-04-09T05:05:24.563Z,18.87
2023-04-09T05:07:53.764Z,14.37
2023-04-09T05:10:21.719Z,13.70
2023-04-09T05:12:49.659Z,14.73
2023-04-09T05:15:17.850Z,14.63
2023-04-09T05:17:46.070Z,16.17
2023-04-09T05:20:14.149Z,16.67
2023-04-09T05:22:42.059Z,16.20
2023-04-09T05:25:11.506Z,13.73
2023-04-09T05:27:39.366Z,14.77
2023-04-09T05:30:08.698Z,15.90
2023-04-09T05:32:36.696Z,16.77
2023-04-09T05:35:05.098Z,16.53
2023-04-09T05:37:33.057Z,14.20
2023-04-09T05:40:00.927Z,15.17
2023-04-09T05:42:30.304Z,18.53
2023-04-09T05:44:58.266Z,16.00
2023-04-09T05:47:26.209Z,15.33
2023-04-09T05:49:54.249Z,16.67
2023-04-09T05:52:22.210Z,17.53
2023-04-09T05:54:50.156Z,15.07
2023-04-09T05:57:18.042Z,17.80
2023-04-09T05:59:47.230Z,15.40
2023-04-09T06:02:15.341Z,18.37
2023-04-09T06:04:43.303Z,15.90
2023-04-09T06:07:11.417Z,14.23
2023-04-09T06:09:39.385Z,15.23
2023-04-09T06:12:07.308Z,17.53
2023-04-09T06:14:35.244Z,17.97
2023-04-09T06:17:04.551Z,13.77
2023-04-09T06:19:32.469Z,15.33
2023-04-09T06:22:00.375Z,14.77
2023-04-09T06:24:28.340Z,13.70
2023-04-09T06:26:56.215Z,12.80
2023-04-09T06:29:24.415Z,14.40
2023-04-09T06:31:52.587Z,16.10
2023-04-09T06:34:21.888Z,14.70
2023-04-09T06:36:49.786Z,14.77
2023-04-09T06:39:17.726Z,12.67
2023-04-09T06:41:46.455Z,14.23
2023-04-09T06:44:14.594Z,13.87
2023-04-09T06:46:42.544Z,13.77
2023-04-09T06:49:10.709Z,13.47
2023-04-09T06:51:39.988Z,15.00
2023-04-09T06:54:07.968Z,13.30
2023-04-09T06:56:36.003Z,13.00
2023-04-09T06:59:03.952Z,11.07
2023-04-09T07:01:31.919Z,10.47
2023-04-09T07:04:00.078Z,14.23
2023-04-09T07:06:28.244Z,11.97
2023-04-09T07:08:57.535Z,11.20
2023-04-09T07:11:25.439Z,12.17
2023-04-09T07:13:53.779Z,11.40
2023-04-09T07:16:21.831Z,12.63
2023-04-09T07:18:49.753Z,10.00
2023-04-09T07:21:17.737Z,9.77
2023-04-09T07:23:45.664Z,11.27
2023-04-09T07:26:14.946Z,11.97
2023-04-09T07:28:42.831Z,11.40
2023-04-09T07:31:11.253Z,12.77
2023-04-09T07:33:39.196Z,11.87
2023-04-09T07:36:07.468Z,9.10
2023-04-09T07:38:35.427Z,10.73
2023-04-09T07:41:03.291Z,9.43
2023-04-09T07:43:33.030Z,9.20
2023-04-09T07:46:01.002Z,11.23
2023-04-09T07:48:29.047Z,9.50
2023-04-09T07:50:56.965Z,12.17
2023-04-09T07:53:24.976Z,9.90
2023-04-09T07:55:53.044Z,9.47
2023-04-09T07:58:20.931Z,9.37
2023-04-09T08:00:50.799Z,10.03
2023-04-09T08:03:19.317Z,8.83
2023-04-09T08:05:47.497Z,9.60
2023-04-09T08:08:15.507Z,9.63
2023-04-09T08:10:43.360Z,7.23
2023-04-09T08:13:12.037Z,7.77
2023-04-09T08:15:40.032Z,8.07
2023-04-09T08:18:09.407Z,8.50
2023-04-09T08:20:37.955Z,10.43
2023-04-09T08:23:05.887Z,8.33
2023-04-09T08:25:33.804Z,9.30
2023-04-09T08:28:01.763Z,8.20
2023-04-09T08:30:29.650Z,7.83
2023-04-09T08:32:57.567Z,9.63
2023-04-09T08:35:28.425Z,7.63
2023-04-09T08:37:57.118Z,8.80
2023-04-09T08:40:25.436Z,7.20
2023-04-09T08:42:56.681Z,7.70
2023-04-09T08:45:25.823Z,8.80
2023-04-09T08:47:53.808Z,8.00
2023-04-09T08:50:21.877Z,8.47
2023-04-09T08:52:51.790Z,8.17
2023-04-09T08:55:19.695Z,7.43
2023-04-09T08:57:47.564Z,6.27
2023-04-09T09:00:15.631Z,7.63
2023-04-09T09:03:05.182Z,8.83
2023-04-09T09:05:40.952Z,6.00
2023-04-09T09:08:12.108Z,6.27
2023-04-09T09:10:41.609Z,6.73
2023-04-09T09:13:21.225Z,7.47
2023-04-09T09:15:50.574Z,6.27
2023-04-09T09:18:19.434Z,6.07
2023-04-09T09:20:47.439Z,6.20
2023-04-09T09:23:16.714Z,5.50
2023-04-09T09:25:44.919Z,5.97
2023-04-09T09:28:13.562Z,5.57
2023-04-09T09:30:41.849Z,5.07
2023-04-09T09:33:10.687Z,6.60
2023-04-09T09:35:50.151Z,6.07
2023-04-09T09:38:19.775Z,5.70
2023-04-09T09:40:48.047Z,5.80
2023-04-09T09:43:16.156Z,6.10
2023-04-09T09:45:45.148Z,6.70
2023-04-09T09:48:13.394Z,7.93
2023-04-09T09:50:42.732Z,5.80
2023-04-09T09:53:12.137Z,6.30
2023-04-09T09:55:43.344Z,4.87
2023-04-09T09:58:25.623Z,6.10
2023-04-09T10:00:54.457Z,5.13
2023-04-09T10:03:26.523Z,6.33
2023-04-09T10:05:54.887Z,6.03
2023-04-09T10:08:23.552Z,6.63
2023-04-09T10:10:53.733Z,5.53
2023-04-09T10:13:29.598Z,5.13
2023-04-09T10:15:57.741Z,5.73
2023-04-09T10:18:26.339Z,6.03
2023-04-09T10:20:59.730Z,5.90
2023-04-09T10:23:35.571Z,7.10
2023-04-09T10:26:05.861Z,5.60
2023-04-09T10:28:33.846Z,4.77
2023-04-09T10:31:02.698Z,4.97
2023-04-09T10:33:30.638Z,5.50
2023-04-09T10:36:02.355Z,4.83
2023-04-09T10:38:37.607Z,5.67
2023-04-09T10:41:16.702Z,6.53
2023-04-09T10:43:44.750Z,6.00
2023-04-09T10:46:29.979Z,5.50
2023-04-09T10:49:11.727Z,6.63
2023-04-09T10:51:40.834Z,6.77
2023-04-09T10:54:43.986Z,6.20
2023-04-09T10:57:14.965Z,7.33
2023-04-09T10:59:45.083Z,6.13
2023-04-09T11:02:46.358Z,5.37
2023-04-09T11:05:23.354Z,5.50
2023-04-09T11:07:56.150Z,8.13
2023-04-09T11:10:24.070Z,6.43
2023-04-09T11:12:55.052Z,6.20
2023-04-09T11:15:23.488Z,5.77
2023-04-09T11:17:51.975Z,5.83
2023-04-09T11:20:22.728Z,5.80
2023-04-09T11:22:51.861Z,5.23
2023-04-09T11:25:21.439Z,5.70
2023-04-09T11:27:51.068Z,6.60
2023-04-09T11:30:20.615Z,6.47
2023-04-09T11:32:49.604Z,5.50
2023-04-09T11:35:19.540Z,4.90
2023-04-09T11:37:48.662Z,5.50
2023-04-09T11:40:17.838Z,6.17
2023-04-09T11:42:46.339Z,5.60
2023-04-09T11:45:16.177Z,6.57
2023-04-09T11:47:46.604Z,5.50
2023-04-09T11:50:15.746Z,4.43
2023-04-09T11:52:44.045Z,6.43
2023-04-09T11:55:12.725Z,5.53
2023-04-09T11:57:42.887Z,5.63
2023-04-09T12:00:13.017Z,6.87
2023-04-09T12:02:47.415Z,4.73
2023-04-09T12:05:23.118Z,4.50
2023-04-09T12:07:56.325Z,4.73
2023-04-09T12:10:29.008Z,4.53
2023-04-09T12:13:01.795Z,4.90
2023-04-09T12:15:33.211Z,4.67
2023-04-09T12:18:02.668Z,5.10
2023-04-09T12:20:32.766Z,5.50
2023-04-09T12:23:03.424Z,5.53
2023-04-09T12:25:32.055Z,4.53
2023-04-09T12:28:00.443Z,4.87
2023-04-09T12:30:28.566Z,5.67
2023-04-09T12:32:57.075Z,5.13
2023-04-09T12:35:26.860Z,6.63
2023-04-09T12:37:55.060Z,4.80
2023-04-09T12:40:23.318Z,4.20
2023-04-09T12:42:51.658Z,5.37
2023-04-09T12:45:20.967Z,4.00
2023-04-09T12:47:49.241Z,4.10
2023-04-09T12:50:17.729Z,6.03
2023-04-09T12:52:47.345Z,4.60
2023-04-09T12:55:16.136Z,4.80
2023-04-09T12:57:45.733Z,4.97
2023-04-09T13:00:14.904Z,5.20
2023-04-09T13:02:43.085Z,4.30
2023-04-09T13:05:11.565Z,4.13
2023-04-09T13:07:40.866Z,5.53
2023-04-09T13:10:12.274Z,5.23
2023-04-09T13:12:40.488Z,4.33
2023-04-09T13:15:08.936Z,5.50
2023-04-09T13:17:36.948Z,4.33
2023-04-09T13:20:05.462Z,5.10
2023-04-09T13:22:33.461Z,4.23
2023-04-09T13:25:01.510Z,4.43
2023-04-09T13:27:30.847Z,5.20
2023-04-09T13:29:58.808Z,4.40
2023-04-09T13:32:27.060Z,4.13
2023-04-09T13:34:55.801Z,4.67
2023-04-09T13:37:23.766Z,4.17
2023-04-09T13:39:52.129Z,4.00
2023-04-09T13:42:19.999Z,3.97
2023-04-09T13:44:49.378Z,4.57
2023-04-09T13:47:18.416Z,4.37
2023-04-09T13:49:46.586Z,5.47
2023-04-09T13:52:15.392Z,4.13
2023-04-09T13:54:43.299Z,4.97
2023-04-09T13:57:11.323Z,3.90
2023-04-09T13:59:41.643Z,4.20
2023-04-09T14:02:11.527Z,3.60
2023-04-09T14:04:39.639Z,4.90
2023-04-09T14:07:08.408Z,5.00
2023-04-09T14:09:36.423Z,3.97
2023-04-09T14:12:04.626Z,4.33
2023-04-09T14:14:32.577Z,4.07
2023-04-09T14:17:00.525Z,3.80
2023-04-09T14:19:29.895Z,4.50
2023-04-09T14:21:57.835Z,5.33
2023-04-09T14:24:25.814Z,3.63
2023-04-09T14:26:53.992Z,4.80
2023-04-09T14:29:22.595Z,5.30
2023-04-09T14:31:51.797Z,3.67
2023-04-09T14:34:19.826Z,3.70
2023-04-09T14:36:49.100Z,3.73
2023-04-09T14:39:17.791Z,4.83
2023-04-09T14:41:45.895Z,3.60
2023-04-09T14:44:13.908Z,3.80
2023-04-09T14:46:42.058Z,4.20
2023-04-09T14:49:10.079Z,4.47
2023-04-09T14:51:38.315Z,5.03
2023-04-09T14:54:07.580Z,4.10
2023-04-09T14:56:36.067Z,4.23
2023-04-09T14:59:04.342Z,4.00
2023-04-09T15:01:33.273Z,3.77
2023-04-09T15:04:01.589Z,4.93
2023-04-09T15:06:31.380Z,4.10
2023-04-09T15:08:59.306Z,4.10
2023-04-09T15:11:29.416Z,5.00
2023-04-09T15:13:57.872Z,3.90
2023-04-09T15:16:28.657Z,4.63
2023-04-09T15:18:58.819Z,3.27
2023-04-09T15:21:27.163Z,4.57
2023-04-09T15:23:56.116Z,4.97
2023-04-09T15:26:24.033Z,3.33
2023-04-09T15:28:54.285Z,4.47
2023-04-09T15:31:22.467Z,3.40
2023-04-09T15:33:50.569Z,3.80
2023-04-09T15:36:18.559Z,3.20
2023-04-09T15:38:46.503Z,4.13
2023-04-09T15:41:16.801Z,3.53
2023-04-09T15:43:44.761Z,3.17
2023-04-09T15:46:16.273Z,3.27
2023-04-09T15:48:44.283Z,2.60
2023-04-09T15:51:12.271Z,2.63
2023-04-09T15:53:40.224Z,2.97
2023-04-09T15:56:10.357Z,3.43
2023-04-09T15:58:40.078Z,3.67
2023-04-09T16:01:08.781Z,3.63
2023-04-09T16:03:39.917Z,2.90
2023-04-09T16:06:09.397Z,3.10
2023-04-09T16:08:38.060Z,4.17
2023-04-09T16:11:07.567Z,3.73
2023-04-09T16:13:35.772Z,3.67
2023-04-09T16:16:03.824Z,3.13
2023-04-09T16:18:31.946Z,3.37
2023-04-09T16:21:01.455Z,5.07
2023-04-09T16:23:30.746Z,3.20
2023-04-09T16:25:58.893Z,2.83
2023-04-09T16:28:27.071Z,3.57
2023-04-09T16:30:55.063Z,3.27
2023-04-09T16:33:22.971Z,3.00
2023-04-09T16:35:50.908Z,3.03
2023-04-09T16:38:20.375Z,2.83
2023-04-09T16:40:48.361Z,2.50
2023-04-09T16:43:16.258Z,2.93
2023-04-09T16:45:45.356Z,2.83
2023-04-09T16:48:13.497Z,2.90
2023-04-09T16:50:41.487Z,2.33
2023-04-09T16:53:09.803Z,2.57
2023-04-09T16:55:39.128Z,2.87
2023-04-09T16:58:07.149Z,3.67
2023-04-09T17:00:35.756Z,3.33
2023-04-09T17:03:03.817Z,2.93
2023-04-09T17:05:37.000Z,2.80
2023-04-09T17:08:08.009Z,2.87
2023-04-09T17:10:40.437Z,3.50
2023-04-09T17:13:08.309Z,4.27
2023-04-09T17:15:36.290Z,3.47
2023-04-09T17:18:04.380Z,3.53
2023-04-09T17:20:32.783Z,3.40
2023-04-09T17:23:03.264Z,4.47
2023-04-09T17:25:31.355Z,3.27
2023-04-09T17:28:01.702Z,3.27
2023-04-09T17:30:29.699Z,3.33
2023-04-09T17:32:57.749Z,4.03
2023-04-09T17:35:25.996Z,3.50
2023-04-09T17:37:53.982Z,3.77
2023-04-09T17:40:22.477Z,3.53
2023-04-09T17:42:50.485Z,3.17
2023-04-09T17:45:19.912Z,3.73
2023-04-09T17:47:48.029Z,3.43
2023-04-09T17:50:16.096Z,3.57
2023-04-09T17:52:44.007Z,3.00
2023-04-09T17:55:13.865Z,3.67
2023-04-09T17:57:42.859Z,3.73
2023-04-09T18:00:12.029Z,3.30
2023-04-09T18:02:43.527Z,3.10
2023-04-09T18:05:11.898Z,4.53
2023-04-09T18:07:39.924Z,3.30
2023-04-09T18:10:08.484Z,3.13
2023-04-09T18:12:36.454Z,3.43
2023-04-09T18:15:04.759Z,3.97
2023-04-09T18:17:32.644Z,3.30
2023-04-09T18:20:02.034Z,3.97
2023-04-09T18:22:30.721Z,3.80
2023-04-09T18:24:58.680Z,3.93
2023-04-09T18:27:26.542Z,4.07
2023-04-09T18:29:54.493Z,3.50
2023-04-09T18:32:23.634Z,3.10
2023-04-09T18:34:52.124Z,3.97
2023-04-09T18:37:22.628Z,3.20
2023-04-09T18:39:50.829Z,3.43
2023-04-09T18:42:18.720Z,3.13
2023-04-09T18:44:46.571Z,4.03
2023-04-09T18:47:14.498Z,3.83
2023-04-09T18:49:42.325Z,4.77
2023-04-09T18:52:10.299Z,3.63
2023-04-09T18:54:39.586Z,4.37
2023-04-09T18:57:07.543Z,3.90
2023-04-09T18:59:35.902Z,3.70
2023-04-09T19:02:04.956Z,3.43
2023-04-09T19:04:36.341Z,3.10
2023-04-09T19:07:04.629Z,3.30
2023-04-09T19:09:33.591Z,4.13
2023-04-09T19:12:02.902Z,3.37
2023-04-09T19:14:30.965Z,4.17
2023-04-09T19:16:59.662Z,3.37
2023-04-09T19:19:29.031Z,3.53
2023-04-09T19:21:57.349Z,4.33
2023-04-09T19:24:25.962Z,4.30
2023-04-09T19:26:53.885Z,3.70
2023-04-09T19:29:23.252Z,3.27
2023-04-09T19:31:51.215Z,7.27
2023-04-09T19:34:19.271Z,3.53
2023-04-09T19:36:47.156Z,3.40
2023-04-09T19:39:15.515Z,4.07
2023-04-09T19:41:43.478Z,5.90
2023-04-09T19:44:11.431Z,3.30
2023-04-09T19:46:40.961Z,4.07
2023-04-09T19:49:09.027Z,3.87
2023-04-09T19:51:37.104Z,5.30
2023-04-09T19:54:05.300Z,4.43
2023-04-09T19:56:33.366Z,4.63
2023-04-09T19:59:02.260Z,3.93
2023-04-09T20:01:30.184Z,4.57
2023-04-09T20:03:59.612Z,5.00
2023-04-09T20:06:28.872Z,4.83
2023-04-09T20:08:56.859Z,3.63
2023-04-09T20:11:24.795Z,6.23
2023-04-09T20:13:52.764Z,4.07
2023-04-09T20:16:20.809Z,4.97
2023-04-09T20:18:48.788Z,5.63
2023-04-09T20:21:18.768Z,5.27
2023-04-09T20:23:46.711Z,5.07
2023-04-09T20:26:14.651Z,5.30
2023-04-09T20:28:42.598Z,5.07
2023-04-09T20:31:10.635Z,4.53
2023-04-09T20:33:38.582Z,5.00
2023-04-09T20:36:14.990Z,4.67
2023-04-09T20:38:44.645Z,4.30
2023-04-09T20:41:12.694Z,6.87
2023-04-09T20:43:40.720Z,5.33
2023-04-09T20:46:08.719Z,6.00
2023-04-09T20:48:36.764Z,5.27
2023-04-09T20:51:09.158Z,5.03
2023-04-09T20:53:37.562Z,5.20
2023-04-09T20:56:09.054Z,8.07
2023-04-09T20:58:37.249Z,6.10
2023-04-09T21:01:07.233Z,4.67
2023-04-09T21:03:36.044Z,5.27
2023-04-09T21:06:04.308Z,5.80
2023-04-09T21:08:32.324Z,6.17
2023-04-09T21:11:00.281Z,5.90
2023-04-09T21:13:30.958Z,5.83
2023-04-09T21:16:01.717Z,5.60
2023-04-09T21:18:29.889Z,6.50
2023-04-09T21:20:57.919Z,7.53
2023-04-09T21:23:26.006Z,6.03
2023-04-09T21:25:53.969Z,5.80
2023-04-09T21:28:21.859Z,6.07
2023-04-09T21:30:51.737Z,6.07
2023-04-09T21:33:19.738Z,5.30
2023-04-09T21:35:47.748Z,5.23
2023-04-09T21:38:16.542Z,6.73
2023-04-09T21:40:46.341Z,7.27
2023-04-09T21:43:14.298Z,6.20
2023-04-09T21:45:42.287Z,5.83
2023-04-09T21:48:11.712Z,6.70
2023-04-09T21:50:39.703Z,7.23
2023-04-09T21:53:08.211Z,5.73
2023-04-09T21:55:37.292Z,5.43
2023-04-09T21:58:05.277Z,6.87
2023-04-09T22:00:33.268Z,6.77
2023-04-09T22:03:02.035Z,5.87
2023-04-09T22:05:34.282Z,6.47
2023-04-09T22:08:02.265Z,7.03
2023-04-09T22:10:30.182Z,6.00
2023-04-09T22:12:58.086Z,7.93
2023-04-09T22:15:26.321Z,8.93
2023-04-09T22:17:54.381Z,7.27
2023-04-09T22:20:24.442Z,9.33
2023-04-09T22:22:55.217Z,5.73
2023-04-09T22:25:23.497Z,6.53
2023-04-09T22:27:52.779Z,6.37
2023-04-09T22:30:23.649Z,6.70
2023-04-09T22:32:52.247Z,8.00
2023-04-09T22:35:20.603Z,5.80
2023-04-09T22:37:48.539Z,6.73
2023-04-09T22:40:17.988Z,7.07
2023-04-09T22:42:47.822Z,5.77
2023-04-09T22:45:15.957Z,7.33
2023-04-09T22:47:43.947Z,5.87
2023-04-09T22:50:13.533Z,6.47
2023-04-09T22:52:41.579Z,6.73
2023-04-09T22:55:10.956Z,6.43
2023-04-09T22:57:42.746Z,6.90
2023-04-09T23:00:11.123Z,7.03
2023-04-09T23:02:39.161Z,8.20
2023-04-09T23:05:08.204Z,6.60
2023-04-09T23:07:36.316Z,6.27
2023-04-09T23:10:04.189Z,6.53
2023-04-09T23:12:32.137Z,8.57
2023-04-09T23:15:01.572Z,6.70
2023-04-09T23:17:29.514Z,6.87
2023-04-09T23:19:57.398Z,6.57
2023-04-09T23:22:27.021Z,7.50
2023-04-09T23:24:55.003Z,7.13
2023-04-09T23:27:28.199Z,8.00
2023-04-09T23:29:56.976Z,6.20
2023-04-09T23:32:26.410Z,7.63
2023-04-09T23:34:54.324Z,7.20
2023-04-09T23:37:22.243Z,7.10
2023-04-09T23:39:50.277Z,7.23
2023-04-09T23:42:18.437Z,8.13
2023-04-09T23:44:46.708Z,6.43
2023-04-09T23:47:14.780Z,8.33
2023-04-09T23:49:44.985Z,6.73
2023-04-09T23:52:12.931Z,7.63
2023-04-09T23:54:48.754Z,5.87
2023-04-09T23:57:17.041Z,8.40
2023-04-09T23:59:44.966Z,8.33
